createdAt,value
2023-05-23T00:01:21.315Z,11.52
2023-05-23T00:03:49.809Z,9.13
2023-05-23T00:06:22.462Z,9.38
2023-05-23T00:08:51.631Z,10.48
2023-05-23T00:11:20.426Z,9.90
2023-05-23T00:13:51.296Z,10.52
2023-05-23T00:16:19.517Z,8.73
2023-05-23T00:18:47.698Z,8.30
2023-05-23T00:21:16.061Z,9.18
2023-05-23T00:23:44.508Z,9.70
2023-05-23T00:26:12.604Z,9.88
2023-05-23T00:28:46.727Z,9.55
2023-05-23T00:31:17.972Z,8.98
2023-05-23T00:33:46.341Z,8.77
2023-05-23T00:36:14.856Z,8.40
2023-05-23T00:38:43.238Z,9.13
2023-05-23T00:41:11.510Z,9.55
2023-05-23T00:46:10.104Z,8.80
2023-05-23T00:48:40.096Z,9.82
2023-05-23T00:51:08.722Z,9.93
2023-05-23T00:53:37.497Z,8.55
2023-05-23T00:56:06.245Z,10.87
2023-05-23T00:58:34.544Z,9.45
2023-05-23T01:01:03.418Z,9.18
2023-05-23T01:03:31.711Z,12.07
2023-05-23T01:06:03.014Z,9.73
2023-05-23T01:08:31.413Z,10.55
2023-05-23T01:11:05.191Z,9.90
2023-05-23T01:13:41.434Z,9.18
2023-05-23T01:16:15.557Z,10.70
2023-05-23T01:18:50.841Z,12.77
2023-05-23T01:21:23.272Z,11.52
2023-05-23T01:24:12.065Z,12.52
2023-05-23T01:27:01.163Z,11.90
2023-05-23T01:29:35.618Z,11.82
2023-05-23T01:32:07.407Z,11.98
2023-05-23T01:34:36.446Z,11.38
2023-05-23T01:37:10.439Z,11.83
2023-05-23T01:39:38.716Z,10.75
2023-05-23T01:42:08.203Z,11.90
2023-05-23T01:44:39.601Z,11.57
2023-05-23T01:47:10.830Z,10.70
2023-05-23T01:49:40.837Z,13.38
2023-05-23T01:52:10.684Z,11.77
2023-05-23T01:54:43.437Z,10.75
2023-05-23T01:57:12.423Z,11.88
2023-05-23T01:59:41.974Z,12.13
2023-05-23T02:02:10.839Z,9.40
2023-05-23T02:04:38.971Z,14.17
2023-05-23T02:07:07.357Z,12.18
2023-05-23T02:09:35.849Z,10.32
2023-05-23T02:12:04.268Z,11.30
2023-05-23T02:14:32.767Z,10.90
2023-05-23T02:17:02.934Z,12.50
2023-05-23T02:19:31.513Z,14.07
2023-05-23T02:22:00.015Z,12.45
2023-05-23T02:24:28.895Z,12.75
2023-05-23T02:26:57.224Z,13.27
2023-05-23T02:29:25.669Z,11.82
2023-05-23T02:31:54.260Z,13.27
2023-05-23T02:34:24.355Z,13.68
2023-05-23T02:36:52.768Z,12.02
2023-05-23T02:39:21.213Z,12.52
2023-05-23T02:41:49.458Z,12.02
2023-05-23T02:44:19.601Z,14.48
2023-05-23T02:46:48.178Z,13.05
2023-05-23T02:49:16.339Z,13.93
2023-05-23T02:51:45.980Z,11.82
2023-05-23T02:56:42.348Z,11.27
2023-05-23T02:59:12.213Z,11.05
2023-05-23T03:04:08.763Z,11.65
2023-05-23T03:06:37.234Z,11.88
2023-05-23T03:09:07.858Z,10.65
2023-05-23T03:11:36.694Z,11.68
2023-05-23T03:14:05.013Z,12.43
2023-05-23T03:16:33.181Z,11.20
2023-05-23T03:19:01.894Z,13.20
2023-05-23T03:21:31.336Z,12.88
2023-05-23T03:23:59.446Z,14.20
2023-05-23T03:26:28.938Z,13.95
2023-05-23T03:28:58.361Z,12.98
2023-05-23T03:31:26.574Z,14.10
2023-05-23T03:33:55.653Z,14.18
2023-05-23T03:36:26.145Z,13.15
2023-05-23T03:38:54.486Z,12.75
2023-05-23T03:41:22.976Z,13.52
2023-05-23T03:43:52.877Z,12.67
2023-05-23T03:48:49.274Z,10.45
2023-05-23T03:51:17.710Z,12.75
2023-05-23T03:53:46.186Z,11.25
2023-05-23T03:56:15.472Z,13.65
2023-05-23T03:58:43.795Z,10.70
2023-05-23T04:01:17.222Z,9.75
2023-05-23T04:03:48.071Z,11.25
2023-05-23T04:06:18.238Z,10.73
2023-05-23T04:08:48.290Z,8.93
2023-05-23T04:11:17.002Z,7.90
2023-05-23T04:13:47.042Z,8.73
2023-05-23T04:16:15.684Z,7.13
2023-05-23T04:18:47.344Z,7.10
2023-05-23T04:21:16.273Z,7.05
2023-05-23T04:24:06.099Z,5.70
2023-05-23T04:26:36.225Z,7.37
2023-05-23T04:29:07.407Z,7.03
2023-05-23T04:31:35.864Z,6.78
2023-05-23T04:34:05.669Z,5.82
2023-05-23T04:36:39.094Z,6.05
2023-05-23T04:39:07.282Z,5.78
2023-05-23T04:41:41.052Z,6.18
2023-05-23T04:44:20.393Z,5.07
2023-05-23T04:47:04.178Z,6.55
2023-05-23T04:49:57.483Z,5.70
2023-05-23T04:52:27.590Z,6.22
2023-05-23T04:54:56.253Z,5.85
2023-05-23T04:57:25.458Z,6.53
2023-05-23T04:59:53.753Z,5.50
2023-05-23T05:02:21.968Z,6.13
2023-05-23T05:04:51.292Z,5.60
2023-05-23T05:07:20.897Z,5.50
2023-05-23T05:09:49.888Z,6.30
2023-05-23T05:12:18.715Z,6.10
2023-05-23T05:14:47.099Z,6.25
2023-05-23T05:17:15.472Z,6.00
2023-05-23T05:20:01.776Z,6.15
2023-05-23T05:22:33.099Z,6.47
2023-05-23T05:25:01.698Z,6.10
2023-05-23T05:27:30.500Z,6.80
2023-05-23T05:30:04.209Z,6.35
2023-05-23T05:32:35.087Z,6.32
2023-05-23T05:37:34.973Z,7.20
2023-05-23T05:42:38.355Z,6.47
2023-05-23T05:45:07.862Z,6.97
2023-05-23T05:47:37.826Z,7.35
2023-05-23T05:50:07.877Z,6.97
2023-05-23T05:52:39.839Z,7.43
2023-05-23T05:55:11.591Z,7.15
2023-05-23T05:57:42.441Z,6.68
2023-05-23T06:00:14.932Z,6.32
2023-05-23T06:02:55.166Z,6.57
2023-05-23T06:05:41.902Z,6.30
2023-05-23T06:08:11.464Z,6.05
2023-05-23T06:10:40.203Z,6.43
2023-05-23T06:13:08.621Z,6.35
2023-05-23T06:15:38.882Z,6.97
2023-05-23T06:18:07.383Z,7.00
2023-05-23T06:20:36.842Z,6.05
2023-05-23T06:23:08.864Z,5.05
2023-05-23T06:25:38.614Z,4.87
2023-05-23T06:28:08.516Z,4.53
2023-05-23T06:30:40.584Z,4.95
2023-05-23T06:33:09.974Z,4.95
2023-05-23T06:35:38.607Z,4.00
2023-05-23T06:38:07.334Z,4.15
2023-05-23T06:40:35.529Z,4.93
2023-05-23T06:43:05.454Z,4.78
2023-05-23T06:45:47.893Z,4.60
2023-05-23T06:48:16.522Z,5.10
2023-05-23T06:50:46.194Z,4.45
2023-05-23T06:53:18.802Z,4.90
2023-05-23T06:55:48.252Z,5.25
2023-05-23T06:58:21.015Z,4.82
2023-05-23T07:00:49.544Z,4.78
2023-05-23T07:03:29.575Z,4.80
2023-05-23T07:06:02.001Z,4.25
2023-05-23T07:08:30.723Z,4.32
2023-05-23T07:11:01.272Z,4.38
2023-05-23T07:13:35.361Z,4.50
2023-05-23T07:16:03.531Z,4.65
2023-05-23T07:18:35.043Z,4.32
2023-05-23T07:21:05.168Z,4.28
2023-05-23T07:23:34.418Z,4.50
2023-05-23T07:26:04.007Z,4.20
2023-05-23T07:28:47.324Z,3.58
2023-05-23T07:31:15.860Z,4.18
2023-05-23T07:33:45.949Z,3.20
2023-05-23T07:36:22.339Z,3.38
2023-05-23T07:38:51.295Z,3.40
2023-05-23T07:41:19.508Z,3.17
2023-05-23T07:43:49.155Z,2.70
2023-05-23T07:48:47.261Z,3.85
2023-05-23T07:53:44.049Z,3.05
2023-05-23T07:56:14.834Z,3.17
2023-05-23T07:58:44.882Z,2.85
2023-05-23T08:01:14.732Z,3.30
2023-05-23T08:04:12.632Z,3.00
2023-05-23T08:07:04.111Z,2.88
2023-05-23T08:09:47.716Z,3.20
2023-05-23T08:12:19.879Z,3.20
2023-05-23T08:14:52.872Z,2.72
2023-05-23T08:17:30.487Z,2.60
2023-05-23T08:20:00.635Z,2.90
2023-05-23T08:22:29.353Z,2.58
2023-05-23T08:24:57.772Z,2.70
2023-05-23T08:27:30.289Z,2.45
2023-05-23T08:30:04.850Z,2.33
2023-05-23T08:32:34.592Z,2.63
2023-05-23T08:37:32.432Z,2.67
2023-05-23T08:40:00.827Z,2.20
2023-05-23T08:42:43.464Z,2.40
2023-05-23T08:45:13.219Z,2.13
2023-05-23T08:47:44.768Z,2.03
2023-05-23T08:50:15.158Z,1.92
2023-05-23T08:52:51.693Z,1.77
2023-05-23T08:55:21.351Z,1.50
2023-05-23T08:57:50.216Z,1.58
2023-05-23T09:00:32.527Z,1.65
2023-05-23T09:03:02.735Z,1.80
2023-05-23T09:05:51.566Z,1.75
2023-05-23T09:08:21.084Z,2.03
2023-05-23T09:10:53.120Z,1.88
2023-05-23T09:13:23.673Z,2.08
2023-05-23T09:16:00.085Z,1.45
2023-05-23T09:18:36.749Z,1.92
2023-05-23T09:21:06.646Z,1.20
2023-05-23T09:23:37.545Z,1.33
2023-05-23T09:26:06.557Z,1.50
2023-05-23T09:28:36.627Z,1.52
2023-05-23T09:31:07.121Z,1.05
2023-05-23T09:33:48.890Z,1.60
2023-05-23T09:36:19.248Z,1.60
2023-05-23T09:38:49.424Z,1.73
2023-05-23T09:41:17.700Z,1.48
2023-05-23T09:43:52.047Z,1.40
2023-05-23T09:46:21.870Z,1.60
2023-05-23T09:48:53.798Z,2.03
2023-05-23T09:51:24.227Z,1.85
2023-05-23T09:53:53.312Z,1.73
2023-05-23T09:56:23.489Z,1.67
2023-05-23T09:58:52.845Z,1.85
2023-05-23T10:01:21.853Z,1.75
2023-05-23T10:03:56.691Z,1.77
2023-05-23T10:06:30.619Z,1.73
2023-05-23T10:09:03.321Z,1.77
2023-05-23T10:12:12.908Z,1.60
2023-05-23T10:14:46.819Z,1.30
2023-05-23T10:17:20.844Z,1.35
2023-05-23T10:19:59.394Z,1.15
2023-05-23T10:22:28.326Z,1.00
2023-05-23T10:24:57.479Z,1.50
2023-05-23T10:27:25.771Z,0.93
2023-05-23T10:29:54.460Z,1.67
2023-05-23T10:32:23.117Z,1.13
2023-05-23T10:35:01.056Z,1.33
2023-05-23T10:37:36.967Z,1.40
2023-05-23T10:40:14.419Z,1.23
2023-05-23T10:42:54.893Z,1.30
2023-05-23T10:45:24.968Z,1.30
2023-05-23T10:47:54.547Z,1.65
2023-05-23T10:50:34.815Z,1.20
2023-05-23T10:53:04.022Z,1.52
2023-05-23T10:55:37.754Z,1.23
2023-05-23T10:58:13.589Z,1.13
2023-05-23T11:00:51.897Z,1.50
2023-05-23T11:03:20.279Z,1.52
2023-05-23T11:06:04.397Z,1.55
2023-05-23T11:08:47.711Z,1.42
2023-05-23T11:11:17.227Z,1.05
2023-05-23T11:13:57.102Z,1.45
2023-05-23T11:16:25.932Z,1.20
2023-05-23T11:18:59.072Z,1.35
2023-05-23T11:21:30.402Z,1.38
2023-05-23T11:23:58.593Z,1.20
2023-05-23T11:26:30.987Z,1.25
2023-05-23T11:29:00.224Z,1.35
2023-05-23T11:31:29.168Z,1.30
2023-05-23T11:33:57.587Z,1.70
2023-05-23T11:36:25.850Z,1.48
2023-05-23T11:38:57.202Z,1.55
2023-05-23T11:41:26.504Z,1.65
2023-05-23T11:43:55.438Z,1.83
2023-05-23T11:46:23.522Z,1.73
2023-05-23T11:48:53.466Z,1.88
2023-05-23T11:51:23.174Z,1.73
2023-05-23T11:53:51.383Z,2.08
2023-05-23T11:56:21.210Z,1.90
2023-05-23T11:58:49.760Z,2.13
2023-05-23T12:01:17.815Z,2.15
2023-05-23T12:03:48.100Z,2.10
2023-05-23T12:06:17.515Z,2.00
2023-05-23T12:08:46.253Z,2.22
2023-05-23T12:11:16.040Z,2.43
2023-05-23T12:13:46.044Z,2.17
2023-05-23T12:16:15.566Z,2.05
2023-05-23T12:18:44.456Z,2.00
2023-05-23T12:21:14.096Z,1.98
2023-05-23T12:23:43.327Z,1.83
2023-05-23T12:26:11.512Z,1.90
2023-05-23T12:28:41.130Z,1.77
2023-05-23T12:31:12.846Z,2.78
2023-05-23T12:33:43.726Z,2.35
2023-05-23T12:36:12.807Z,2.45
2023-05-23T12:38:45.297Z,3.08
2023-05-23T12:41:19.547Z,3.00
2023-05-23T12:43:51.705Z,2.40
2023-05-23T12:46:21.963Z,2.72
2023-05-23T12:48:50.568Z,2.50
2023-05-23T12:51:19.033Z,2.40
2023-05-23T12:53:47.362Z,2.38
2023-05-23T12:56:15.916Z,2.30
2023-05-23T12:58:44.232Z,2.30
2023-05-23T13:01:12.579Z,2.28
2023-05-23T13:03:42.896Z,2.67
2023-05-23T13:06:11.477Z,2.47
2023-05-23T13:08:39.997Z,2.65
2023-05-23T13:11:08.209Z,2.65
2023-05-23T13:13:36.479Z,2.60
2023-05-23T13:16:04.853Z,1.70
2023-05-23T13:18:33.166Z,2.20
2023-05-23T13:21:02.944Z,1.90
2023-05-23T13:23:31.397Z,2.33
2023-05-23T13:25:59.874Z,2.78
2023-05-23T13:28:28.229Z,2.08
2023-05-23T13:30:56.744Z,2.33
2023-05-23T13:33:25.066Z,2.13
2023-05-23T13:35:54.434Z,2.10
2023-05-23T13:38:26.670Z,2.03
2023-05-23T13:40:55.781Z,1.30
2023-05-23T13:43:24.304Z,1.42
2023-05-23T13:45:52.665Z,1.73
2023-05-23T13:48:21.471Z,1.10
2023-05-23T13:50:50.113Z,1.00
2023-05-23T13:53:18.566Z,1.00
2023-05-23T13:55:48.282Z,1.25
2023-05-23T13:58:16.460Z,1.00
2023-05-23T14:00:44.905Z,1.17
2023-05-23T14:03:13.228Z,0.75
2023-05-23T14:05:41.813Z,0.80
2023-05-23T14:08:11.578Z,0.70
2023-05-23T14:10:40.104Z,0.80
2023-05-23T14:13:09.846Z,0.90
2023-05-23T14:18:07.623Z,1.30
2023-05-23T14:20:37.337Z,1.30
2023-05-23T14:23:05.545Z,1.42
2023-05-23T14:25:33.769Z,1.25
2023-05-23T14:28:04.733Z,1.23
2023-05-23T14:30:34.299Z,1.23
2023-05-23T14:33:03.122Z,1.35
2023-05-23T14:35:31.578Z,1.88
2023-05-23T14:37:59.765Z,1.30
2023-05-23T14:40:28.493Z,1.67
2023-05-23T14:42:56.831Z,2.17
2023-05-23T14:45:25.211Z,1.67
2023-05-23T14:47:54.966Z,1.90
2023-05-23T14:50:23.465Z,2.00
2023-05-23T14:52:52.288Z,1.70
2023-05-23T14:55:21.053Z,1.80
2023-05-23T14:57:49.365Z,1.47
2023-05-23T15:00:18.474Z,1.80
2023-05-23T15:02:47.522Z,1.55
2023-05-23T15:05:18.087Z,1.80
2023-05-23T15:07:46.375Z,1.70
2023-05-23T15:10:15.076Z,1.77
2023-05-23T15:12:43.408Z,2.43
2023-05-23T15:15:12.350Z,1.63
2023-05-23T15:17:40.497Z,1.63
2023-05-23T15:20:10.258Z,2.30
2023-05-23T15:22:40.775Z,2.25
2023-05-23T15:25:10.093Z,2.30
2023-05-23T15:27:38.621Z,2.58
2023-05-23T15:30:08.944Z,2.63
2023-05-23T15:32:37.071Z,2.65
2023-05-23T15:35:06.788Z,3.63
2023-05-23T15:37:35.088Z,3.13
2023-05-23T15:40:05.549Z,3.53
2023-05-23T15:42:33.712Z,3.47
2023-05-23T15:45:01.993Z,3.63
2023-05-23T15:47:30.457Z,3.13
2023-05-23T15:49:58.622Z,3.40
2023-05-23T15:52:28.553Z,3.30
2023-05-23T15:54:57.405Z,3.40
2023-05-23T15:57:26.844Z,3.07
2023-05-23T16:02:23.119Z,4.45
2023-05-23T16:04:51.613Z,3.10
2023-05-23T16:07:19.836Z,2.50
2023-05-23T16:09:48.277Z,3.53
2023-05-23T16:12:16.524Z,2.80
2023-05-23T16:14:45.997Z,3.72
2023-05-23T16:17:14.317Z,3.05
2023-05-23T16:19:42.704Z,3.05
2023-05-23T16:22:11.543Z,2.90
2023-05-23T16:24:39.712Z,3.27
2023-05-23T16:27:07.794Z,3.08
2023-05-23T16:29:36.037Z,2.85
2023-05-23T16:32:06.358Z,2.78
2023-05-23T16:34:35.306Z,3.03
2023-05-23T16:37:03.658Z,3.65
2023-05-23T16:39:32.558Z,2.50
2023-05-23T16:42:00.970Z,1.70
2023-05-23T16:44:29.246Z,2.03
2023-05-23T16:46:57.591Z,2.22
2023-05-23T16:49:27.259Z,2.03
2023-05-23T16:54:24.248Z,2.08
2023-05-23T16:56:52.502Z,2.22
2023-05-23T16:59:21.236Z,1.63
2023-05-23T17:01:49.629Z,2.37
2023-05-23T17:04:20.517Z,1.95
2023-05-23T17:06:50.539Z,2.00
2023-05-23T17:09:19.333Z,1.88
2023-05-23T17:11:47.631Z,1.90
2023-05-23T17:14:16.413Z,2.10
2023-05-23T17:16:44.697Z,2.40
2023-05-23T17:21:42.600Z,1.75
2023-05-23T17:24:12.255Z,2.15
2023-05-23T17:29:09.496Z,1.75
2023-05-23T17:31:37.886Z,1.90
2023-05-23T17:34:06.703Z,1.65
2023-05-23T17:36:35.163Z,2.37
2023-05-23T17:39:03.517Z,1.90
2023-05-23T17:41:33.369Z,1.55
2023-05-23T17:44:01.775Z,1.52
2023-05-23T17:46:30.206Z,1.50
2023-05-23T17:48:58.366Z,1.50
2023-05-23T17:51:26.611Z,1.70
2023-05-23T17:53:54.873Z,1.83
2023-05-23T17:56:24.951Z,1.80
2023-05-23T17:58:54.473Z,1.80
2023-05-23T18:01:22.929Z,1.45
2023-05-23T18:03:53.441Z,1.80
2023-05-23T18:06:21.936Z,1.27
2023-05-23T18:08:50.369Z,2.03
2023-05-23T18:11:18.572Z,1.83
2023-05-23T18:13:46.980Z,1.50
2023-05-23T18:16:17.001Z,1.27
2023-05-23T18:18:45.418Z,1.65
2023-05-23T18:21:13.691Z,1.85
2023-05-23T18:23:42.133Z,1.92
2023-05-23T18:26:10.770Z,1.75
2023-05-23T18:28:39.216Z,1.55
2023-05-23T18:31:07.496Z,1.17
2023-05-23T18:33:37.115Z,1.85
2023-05-23T18:36:06.790Z,1.48
2023-05-23T18:38:35.755Z,1.90
2023-05-23T18:41:04.034Z,1.67
2023-05-23T18:43:32.190Z,1.58
2023-05-23T18:46:00.544Z,2.35
2023-05-23T18:48:29.717Z,1.45
2023-05-23T18:50:59.490Z,1.60
2023-05-23T18:53:27.745Z,1.25
2023-05-23T18:55:56.429Z,1.08
2023-05-23T18:58:24.684Z,1.60
2023-05-23T19:00:53.612Z,0.80
2023-05-23T19:03:22.043Z,1.15
2023-05-23T19:05:50.958Z,1.05
2023-05-23T19:08:20.471Z,1.38
2023-05-23T19:10:48.932Z,1.23
2023-05-23T19:13:18.722Z,1.20
2023-05-23T19:15:50.292Z,1.40
2023-05-23T19:18:19.091Z,1.40
2023-05-23T19:20:48.198Z,1.40
2023-05-23T19:23:16.380Z,1.05
2023-05-23T19:25:46.008Z,1.52
2023-05-23T19:30:44.792Z,1.17
2023-05-23T19:35:41.316Z,1.05
2023-05-23T19:38:09.629Z,1.80
2023-05-23T19:40:38.114Z,1.38
2023-05-23T19:43:08.377Z,1.58
2023-05-23T19:45:37.216Z,1.10
2023-05-23T19:48:05.970Z,1.35
2023-05-23T19:50:34.192Z,1.40
2023-05-23T19:53:02.318Z,1.20
2023-05-23T19:55:30.436Z,1.30
2023-05-23T19:57:58.752Z,1.15
2023-05-23T20:00:28.810Z,1.20
2023-05-23T20:02:57.675Z,1.00
2023-05-23T20:05:26.517Z,1.50
2023-05-23T20:07:54.767Z,1.10
2023-05-23T20:10:23.184Z,1.00
2023-05-23T20:12:51.674Z,0.73
2023-05-23T20:15:31.162Z,1.30
2023-05-23T20:18:09.696Z,1.00
2023-05-23T20:20:38.001Z,1.67
2023-05-23T20:23:07.491Z,1.08
2023-05-23T20:25:35.883Z,1.48
2023-05-23T20:28:03.992Z,1.10
2023-05-23T20:30:34.020Z,1.05
2023-05-23T20:33:02.189Z,1.20
2023-05-23T20:35:32.004Z,1.35
2023-05-23T20:38:00.209Z,1.02
2023-05-23T20:40:30.016Z,0.88
2023-05-23T20:43:04.356Z,0.85
2023-05-23T20:45:33.137Z,1.55
2023-05-23T20:48:01.732Z,0.70
2023-05-23T20:50:32.499Z,1.80
2023-05-23T20:53:02.454Z,1.05
2023-05-23T20:55:31.056Z,0.90
2023-05-23T20:57:59.344Z,1.20
2023-05-23T21:00:27.769Z,1.00
2023-05-23T21:02:56.273Z,1.20
2023-05-23T21:05:24.861Z,1.30
2023-05-23T21:07:54.424Z,1.02
2023-05-23T21:10:22.934Z,1.75
2023-05-23T21:12:51.678Z,1.48
2023-05-23T21:15:20.519Z,1.07
2023-05-23T21:17:50.698Z,0.85
2023-05-23T21:20:20.673Z,1.10
2023-05-23T21:22:49.215Z,0.88
2023-05-23T21:25:29.184Z,1.17
2023-05-23T21:27:57.405Z,1.40
2023-05-23T21:30:39.976Z,0.77
2023-05-23T21:33:08.687Z,1.40
2023-05-23T21:35:37.804Z,1.13
2023-05-23T21:38:05.912Z,1.05
2023-05-23T21:40:36.607Z,1.48
2023-05-23T21:43:04.798Z,1.45
2023-05-23T21:45:33.058Z,1.80
2023-05-23T21:48:01.641Z,1.35
2023-05-23T21:50:29.885Z,1.20
2023-05-23T21:52:57.998Z,1.45
2023-05-23T21:55:27.233Z,1.00
2023-05-23T21:57:57.429Z,1.35
2023-05-23T22:00:27.330Z,0.93
2023-05-23T22:02:56.011Z,1.30
2023-05-23T22:05:24.820Z,0.75
2023-05-23T22:07:53.982Z,1.30
2023-05-23T22:10:22.788Z,1.60
2023-05-23T22:12:51.097Z,1.15
2023-05-23T22:15:20.716Z,1.25
2023-05-23T22:17:48.891Z,0.90
2023-05-23T22:20:17.138Z,1.67
2023-05-23T22:22:45.476Z,1.10
2023-05-23T22:25:13.645Z,1.20
2023-05-23T22:27:42.019Z,1.25
2023-05-23T22:30:10.874Z,1.35
2023-05-23T22:32:40.450Z,1.47
2023-05-23T22:35:09.591Z,1.55
2023-05-23T22:37:37.802Z,1.30
2023-05-23T22:40:07.340Z,1.15
2023-05-23T22:42:35.741Z,1.75
2023-05-23T22:45:04.984Z,1.45
2023-05-23T22:47:33.615Z,1.25
2023-05-23T22:50:03.950Z,1.92
2023-05-23T22:52:34.593Z,1.73
2023-05-23T22:55:02.717Z,1.10
2023-05-23T22:57:31.002Z,1.65
2023-05-23T22:59:59.119Z,1.30
2023-05-23T23:02:27.423Z,1.48
2023-05-23T23:04:55.776Z,1.60
2023-05-23T23:07:25.652Z,1.67
2023-05-23T23:12:22.060Z,1.20
2023-05-23T23:14:50.603Z,1.70
2023-05-23T23:17:18.843Z,1.67
2023-05-23T23:19:49.474Z,1.45
2023-05-23T23:22:19.680Z,1.23
2023-05-23T23:24:49.503Z,1.55
2023-05-23T23:27:17.664Z,1.35
2023-05-23T23:29:46.270Z,0.93
2023-05-23T23:32:14.456Z,1.38
2023-05-23T23:34:42.512Z,1.20
2023-05-23T23:37:10.914Z,0.80
2023-05-23T23:39:39.298Z,1.27
2023-05-23T23:42:08.990Z,1.63
2023-05-23T23:47:05.837Z,1.63
2023-05-23T23:49:34.015Z,1.20
2023-05-23T23:52:02.506Z,0.95
2023-05-23T23:54:30.682Z,1.25
2023-05-23T23:56:58.802Z,1.55
2023-05-23T23:59:28.557Z,1.40
